Wingerworth, United Kingdom
Current Conditions -  °F | °C
As of 10:50 AM on Friday 28 Nov 2014 (Local Time) from EGNX Reporting Station
Haze Haze  
Wind Chill: 50°   Ceiling: 300
Heat Index: 50°   Visibility: 1.1mi
Dew Point: 48°   Wind: 10mph
Humidity: 94%   Direction: 60°ENE
Pressure: 29.65"   Gusts: NA
Location:  53.2°N, 1.44°W
Report Text: EGNX 281050Z 06009KT 1800 BR FEW002 BKN003 10/09 Q1004
Loading
Personal Weather Stations






























Interactive Weather Map New forecast layout! Learn more

10-Day Weather Forecast

Advertisements
Track Severe Weather on mobile